Time;durP1;ratioP1;P1;durP2;ratioP2;P2;SDS_P1;SDS_P2;PMS_P1;PMS_P2;Temp;Humidity;BMP_temperature;BMP_pressure;BME280_temperature;BME280_humidity;BME280_pressure;Samples;Min_cycle;Max_cycle;Signal;HPM_P1;HPM_P2
2021/07/19 00:00:25;;;;;;;10.80;6.20;;;;;;;24.03;70.81;99345.72;6269574;28;20467;-58
2021/07/19 00:03:26;;;;;;;12.32;6.57;;;;;;;23.91;71.26;99342.78;6253242;28;20045;-58
2021/07/19 00:06:27;;;;;;;19.27;6.47;;;;;;;23.97;71.52;99346.50;6269917;28;20495;-58
2021/07/19 00:09:27;;;;;;;11.63;6.20;;;;;;;23.99;72.25;99346.28;6269769;28;20307;-58
2021/07/19 00:12:28;;;;;;;10.97;6.13;;;;;;;23.95;72.32;99351.22;6270931;28;20049;-58
2021/07/19 00:15:29;;;;;;;12.67;6.77;;;;;;;23.89;74.33;99349.34;6270080;28;20515;-58
2021/07/19 00:18:30;;;;;;;11.77;6.30;;;;;;;23.92;73.33;99355.06;6270992;28;20056;-58
2021/07/19 00:21:31;;;;;;;12.85;6.82;;;;;;;23.91;73.61;99356.09;6270710;28;20063;-50
2021/07/19 00:24:32;;;;;;;14.00;6.70;;;;;;;23.90;73.42;99353.63;6253302;28;20048;-52
2021/07/19 00:27:33;;;;;;;12.50;6.63;;;;;;;23.88;74.15;99351.16;6253365;28;20064;-54
2021/07/19 00:30:36;;;;;;;14.57;6.50;;;;;;;23.91;73.94;99347.31;6253104;28;20055;-51
2021/07/19 00:33:37;;;;;;;10.18;6.28;;;;;;;23.79;74.93;99339.03;6270659;28;20045;-49
2021/07/19 00:36:38;;;;;;;19.73;7.40;;;;;;;23.79;74.94;99351.53;6270754;28;20041;-59
2021/07/19 00:39:39;;;;;;;10.13;7.27;;;;;;;23.84;75.40;99344.59;6270582;28;20049;-53
2021/07/19 00:42:40;;;;;;;11.52;7.15;;;;;;;23.90;75.28;99337.66;6269411;28;20439;-52
2021/07/19 00:45:41;;;;;;;10.68;7.10;;;;;;;23.88;75.83;99337.84;6270588;28;20160;-53
2021/07/19 00:48:43;;;;;;;10.73;7.60;;;;;;;23.68;77.92;99344.88;6269274;28;20585;-50
2021/07/19 00:51:44;;;;;;;12.68;6.80;;;;;;;23.79;77.07;99351.53;6269423;28;20748;-51
2021/07/19 00:54:46;;;;;;;15.43;7.63;;;;;;;23.78;76.94;99339.22;6269306;28;20037;-49
2021/07/19 00:57:48;;;;;;;12.40;7.32;;;;;;;23.79;77.25;99335.56;6269279;28;20049;-51
2021/07/19 01:00:53;;;;;;;15.85;7.38;;;;;;;23.73;77.73;99335.28;6270054;28;20115;-51
2021/07/19 01:03:57;;;;;;;15.77;7.97;;;;;;;23.71;77.96;99328.50;6270355;28;20043;-54
2021/07/19 01:07:02;;;;;;;10.80;7.38;;;;;;;23.78;77.85;99318.72;6270300;28;20052;-49
2021/07/19 01:10:14;;;;;;;16.85;7.78;;;;;;;23.76;78.50;99319.91;6273843;28;20052;-52
2021/07/19 01:13:15;;;;;;;12.10;7.95;;;;;;;23.81;78.60;99312.22;6274709;28;20052;-50
2021/07/19 01:16:16;;;;;;;14.23;8.30;;;;;;;23.72;78.78;99323.00;6274718;28;20133;-52
2021/07/19 01:19:18;;;;;;;11.40;7.70;;;;;;;23.74;79.30;99318.28;6273450;28;20087;-54
2021/07/19 01:22:24;;;;;;;14.90;8.02;;;;;;;23.68;79.42;99315.56;6256799;28;20052;-48
2021/07/19 01:25:40;;;;;;;15.25;8.27;;;;;;;23.73;79.85;99311.31;6274434;28;20408;-51
2021/07/19 01:28:44;;;;;;;15.77;8.45;;;;;;;23.74;80.04;99322.78;6274494;28;20076;-52
2021/07/19 01:31:46;;;;;;;12.13;8.52;;;;;;;23.73;80.13;99313.16;6273020;28;20041;-53
2021/07/19 01:34:49;;;;;;;13.88;8.20;;;;;;;23.76;79.83;99306.59;6273119;28;20492;-50
2021/07/19 01:37:50;;;;;;;15.88;8.60;;;;;;;23.74;80.16;99312.13;6274321;28;20130;-58
2021/07/19 01:40:52;;;;;;;12.15;8.68;;;;;;;23.72;81.20;99312.34;6273973;28;20041;-58
2021/07/19 01:43:56;;;;;;;12.98;8.27;;;;;;;23.73;80.67;99307.84;6272886;28;20539;-58
2021/07/19 01:46:58;;;;;;;12.88;8.75;;;;;;;23.76;81.53;99303.94;6280909;28;20419;-58
2021/07/19 01:50:00;;;;;;;13.77;8.68;;;;;;;23.73;81.60;99318.47;6298976;28;20060;-58
2021/07/19 01:53:03;;;;;;;13.50;9.07;;;;;;;23.77;82.97;99346.41;6285367;28;20388;-58
2021/07/19 01:56:04;;;;;;;18.75;9.38;;;;;;;23.72;86.67;99362.09;6274021;28;20053;-59
2021/07/19 01:59:05;;;;;;;17.13;9.77;;;;;;;23.32;89.08;99375.16;6272622;28;20452;-58
2021/07/19 02:02:08;;;;;;;18.00;9.50;;;;;;;23.15;92.82;99385.25;6273442;28;20045;-58
2021/07/19 02:05:12;;;;;;;25.38;11.73;;;;;;;23.20;97.30;99398.78;6273696;28;20032;-58
2021/07/19 02:08:16;;;;;;;20.58;10.38;;;;;;;23.08;100.00;99410.97;6272640;28;20053;-58
2021/07/19 02:11:21;;;;;;;19.15;11.43;;;;;;;23.05;100.00;99443.28;6273415;28;20049;-58
2021/07/19 02:14:22;;;;;;;19.33;11.45;;;;;;;22.89;100.00;99450.44;6273450;28;20052;-58
2021/07/19 02:17:24;;;;;;;23.23;12.25;;;;;;;22.76;100.00;99437.00;6284290;28;20047;-58
2021/07/19 02:20:26;;;;;;;19.80;10.63;;;;;;;22.78;100.00;99435.00;6280179;28;20040;-58
2021/07/19 02:23:29;;;;;;;18.35;9.90;;;;;;;22.72;100.00;99441.06;6296682;28;20048;-58
2021/07/19 02:26:31;;;;;;;17.67;10.07;;;;;;;22.70;100.00;99446.56;6297901;28;20056;-58
2021/07/19 02:29:32;;;;;;;24.50;10.55;;;;;;;22.72;100.00;99463.16;6297908;28;20040;-58
2021/07/19 02:32:36;;;;;;;21.00;11.32;;;;;;;22.85;100.00;99475.75;6283340;28;20137;-58
2021/07/19 02:35:38;;;;;;;25.08;12.25;;;;;;;22.63;100.00;99512.13;6273071;28;20044;-58
2021/07/19 02:38:40;;;;;;;31.00;14.65;;;;;;;22.33;100.00;99490.06;6294084;28;20407;-58
2021/07/19 02:41:43;;;;;;;19.17;11.00;;;;;;;22.31;100.00;99503.50;6297633;28;20402;-58
2021/07/19 02:44:45;;;;;;;22.50;11.73;;;;;;;22.29;100.00;99512.69;6297407;28;20056;-58
2021/07/19 02:47:49;;;;;;;21.85;12.75;;;;;;;22.35;100.00;99434.06;6297460;28;20098;-58
2021/07/19 02:50:54;;;;;;;16.75;11.50;;;;;;;22.14;100.00;99409.84;6297198;28;20131;-58
2021/07/19 02:53:57;;;;;;;15.88;11.30;;;;;;;22.41;100.00;99431.47;6297206;28;20036;-58
2021/07/19 02:56:59;;;;;;;16.90;10.57;;;;;;;22.42;100.00;99462.34;6289878;28;20562;-58
2021/07/19 02:59:59;;;;;;;18.25;10.70;;;;;;;22.27;100.00;99441.13;6272116;28;20052;-57
2021/07/19 03:03:09;;;;;;;15.57;9.57;;;;;;;22.35;100.00;99444.69;6272151;28;20140;-58
2021/07/19 03:06:16;;;;;;;16.15;10.05;;;;;;;22.43;100.00;99444.59;6272152;28;20135;-58
2021/07/19 03:09:20;;;;;;;15.35;10.18;;;;;;;22.50;100.00;99446.31;6272293;28;20082;-58
2021/07/19 03:12:23;;;;;;;13.30;9.48;;;;;;;22.47;100.00;99448.53;6271858;28;20048;-58
2021/07/19 03:15:30;;;;;;;14.20;9.80;;;;;;;22.41;100.00;99443.97;6272066;28;20048;-58
2021/07/19 03:18:38;;;;;;;15.35;9.98;;;;;;;22.53;100.00;99453.09;6271890;28;20080;-58
2021/07/19 03:21:42;;;;;;;13.45;10.02;;;;;;;22.40;100.00;99459.06;6270545;28;20076;-59
2021/07/19 03:24:45;;;;;;;12.38;9.43;;;;;;;22.39;100.00;99468.06;6271699;28;20055;-58
2021/07/19 03:27:46;;;;;;;16.52;10.13;;;;;;;22.43;100.00;99474.66;6271632;28;20045;-58
2021/07/19 03:30:48;;;;;;;19.63;10.27;;;;;;;22.42;100.00;99467.66;6271173;28;20550;-58
2021/07/19 03:33:50;;;;;;;15.52;10.73;;;;;;;22.45;100.00;99458.53;6271683;28;20107;-59
2021/07/19 03:36:53;;;;;;;15.13;8.90;;;;;;;22.43;100.00;99464.03;6278024;28;20064;-58
2021/07/19 03:39:55;;;;;;;15.77;9.20;;;;;;;22.46;100.00;99454.84;6296895;28;20049;-58
2021/07/19 03:42:57;;;;;;;13.73;8.90;;;;;;;22.41;100.00;99460.72;6296021;28;20045;-58
2021/07/19 03:45:59;;;;;;;12.55;8.80;;;;;;;22.35;100.00;99458.81;6296302;28;20052;-58
2021/07/19 03:49:02;;;;;;;13.52;8.40;;;;;;;22.33;100.00;99458.97;6296212;28;20041;-58
2021/07/19 03:52:04;;;;;;;14.45;8.60;;;;;;;22.43;100.00;99458.69;6296032;28;20101;-58
2021/07/19 03:55:06;;;;;;;;;;;;;;;22.46;100.00;99457.50;6296961;28;20082;-58
2021/07/19 03:58:07;;;;;;;;;;;;;;;22.36;100.00;99457.78;6295344;28;19928;-58
2021/07/19 04:01:09;;;;;;;18.90;8.88;;;;;;;22.41;100.00;99457.25;6295797;28;19976;-59
2021/07/19 04:04:16;;;;;;;11.32;8.23;;;;;;;22.25;100.00;99437.81;6295949;28;20561;-58
2021/07/19 04:07:17;;;;;;;12.75;7.95;;;;;;;22.37;100.00;99432.06;6296179;28;20048;-58
2021/07/19 04:10:20;;;;;;;10.95;8.35;;;;;;;22.32;100.00;99435.22;6296033;28;20136;-58
2021/07/19 04:13:22;;;;;;;14.73;8.10;;;;;;;22.33;100.00;99435.06;6295839;28;20384;-58
2021/07/19 04:16:23;;;;;;;13.60;8.40;;;;;;;22.39;100.00;99432.69;6295923;28;20502;-58
2021/07/19 04:19:25;;;;;;;12.73;8.38;;;;;;;22.35;100.00;99431.41;6295891;28;20406;-58
2021/07/19 04:22:26;;;;;;;;;;;;;;;22.40;100.00;99442.28;6296217;28;20063;-58
2021/07/19 04:25:26;;;;;;;9.93;7.30;;;;;;;22.42;100.00;99437.63;6296266;28;19920;-58
2021/07/19 04:28:27;;;;;;;12.27;8.03;;;;;;;22.44;100.00;99440.91;6294673;28;20052;-58
2021/07/19 04:31:28;;;;;;;13.40;7.73;;;;;;;22.45;100.00;99446.06;6294389;28;20041;-58
2021/07/19 04:34:34;;;;;;;11.53;7.77;;;;;;;22.52;100.00;99446.94;6294542;28;20527;-58
2021/07/19 04:37:36;;;;;;;13.93;8.13;;;;;;;22.54;100.00;99449.44;6295589;28;20037;-58
2021/07/19 04:40:37;;;;;;;12.52;7.95;;;;;;;22.59;100.00;99443.53;6295443;28;20053;-58
2021/07/19 04:43:38;;;;;;;12.23;7.53;;;;;;;22.68;100.00;99443.25;6296827;28;20667;-58
2021/07/19 04:46:39;;;;;;;12.00;7.80;;;;;;;22.71;100.00;99439.38;6300539;28;20053;-58
2021/07/19 04:49:41;;;;;;;14.70;8.97;;;;;;;22.69;100.00;99438.75;6300674;28;20049;-59
2021/07/19 04:52:42;;;;;;;11.23;8.10;;;;;;;22.73;100.00;99446.19;6298758;28;20492;-59
2021/07/19 04:55:47;;;;;;;11.27;7.70;;;;;;;22.62;99.41;99443.19;6300146;28;20044;-58
2021/07/19 04:58:51;;;;;;;14.18;8.02;;;;;;;22.66;100.00;99447.13;6277208;28;20079;-58
2021/07/19 05:01:54;;;;;;;12.57;7.45;;;;;;;22.56;100.00;99450.06;6274850;28;20408;-58
2021/07/19 05:04:58;;;;;;;10.23;7.32;;;;;;;22.60;99.66;99463.81;6274918;28;20076;-58
2021/07/19 05:07:59;;;;;;;12.75;7.43;;;;;;;22.26;97.83;99459.91;6297173;28;20048;-58
2021/07/19 05:11:01;;;;;;;;;;;;;;;22.51;97.10;99458.59;6300103;28;20134;-58
2021/07/19 05:14:02;;;;;;;11.63;6.45;;;;;;;22.54;96.87;99462.72;6298431;28;20302;-58
2021/07/19 05:17:03;;;;;;;9.38;6.78;;;;;;;22.61;98.62;99466.28;6291399;28;20049;-59
2021/07/19 05:20:10;;;;;;;9.52;6.43;;;;;;;22.64;95.26;99467.75;6285568;28;20052;-58
2021/07/19 05:23:11;;;;;;;8.73;6.22;;;;;;;22.67;94.28;99457.56;6299355;28;20048;-58
2021/07/19 05:26:15;;;;;;;9.35;7.40;;;;;;;22.64;95.88;99452.63;6299722;28;20052;-58
2021/07/19 05:29:16;;;;;;;9.60;7.45;;;;;;;22.62;97.23;99453.81;6299350;28;20483;-58
2021/07/19 05:32:17;;;;;;;9.57;7.43;;;;;;;22.66;97.86;99457.75;6299560;28;20059;-58
2021/07/19 05:35:21;;;;;;;11.05;8.35;;;;;;;22.67;98.85;99454.06;6299163;28;20037;-58
2021/07/19 05:38:24;;;;;;;12.45;8.57;;;;;;;22.75;98.81;99459.28;6299008;28;20052;-58
2021/07/19 05:41:25;;;;;;;15.20;9.00;;;;;;;22.79;98.40;99467.72;6299219;28;20072;-59
2021/07/19 05:44:25;;;;;;;12.97;9.13;;;;;;;22.67;99.30;99462.91;6277850;28;20373;-59
2021/07/19 05:47:26;;;;;;;15.57;9.90;;;;;;;22.78;100.00;99466.09;6272904;28;20049;-59
2021/07/19 05:50:27;;;;;;;13.83;9.00;;;;;;;22.77;100.00;99475.88;6274003;28;20492;-59
2021/07/19 05:53:28;;;;;;;18.13;9.35;;;;;;;22.73;99.90;99491.41;6273951;28;20040;-58
2021/07/19 05:56:32;;;;;;;18.70;9.80;;;;;;;22.78;100.00;99505.97;6273523;28;20500;-58
2021/07/19 05:59:33;;;;;;;13.40;9.85;;;;;;;22.79;100.00;99521.72;6272900;28;20080;-58
2021/07/19 06:02:34;;;;;;;13.40;9.37;;;;;;;22.84;100.00;99529.16;6272218;28;20049;-55
2021/07/19 06:05:36;;;;;;;13.93;9.87;;;;;;;22.92;99.37;99537.03;6273350;28;20080;-55
2021/07/19 06:08:37;;;;;;;13.15;9.10;;;;;;;23.05;100.00;99545.19;6294625;28;20052;-54
2021/07/19 06:11:39;;;;;;;14.77;9.23;;;;;;;23.13;99.09;99553.06;6298399;28;20045;-53
2021/07/19 06:14:40;;;;;;;14.50;9.43;;;;;;;23.23;100.00;99558.09;6297021;28;20697;-54
2021/07/19 06:17:42;;;;;;;14.85;8.82;;;;;;;23.22;99.12;99569.75;6298202;28;20048;-53
2021/07/19 06:20:42;;;;;;;11.65;9.10;;;;;;;23.25;100.00;99580.03;6298196;28;20052;-54
2021/07/19 06:23:43;;;;;;;18.53;10.07;;;;;;;23.24;100.00;99597.00;6296553;28;20077;-52
2021/07/19 06:26:44;;;;;;;14.23;10.47;;;;;;;23.21;100.00;99615.19;6276788;28;20033;-54
2021/07/19 06:29:45;;;;;;;19.13;10.30;;;;;;;23.10;100.00;99627.97;6295275;28;20064;-53
2021/07/19 06:32:46;;;;;;;13.73;9.47;;;;;;;23.06;100.00;99639.13;6280003;28;20307;-52
2021/07/19 06:35:47;;;;;;;15.00;10.37;;;;;;;23.01;100.00;99655.66;6297544;28;20047;-54
2021/07/19 06:38:48;;;;;;;11.80;10.18;;;;;;;22.95;100.00;99645.72;6296017;28;20281;-54
2021/07/19 06:41:48;;;;;;;19.40;10.03;;;;;;;22.99;100.00;99651.50;6297518;28;20436;-50
2021/07/19 06:44:53;;;;;;;14.37;9.67;;;;;;;23.01;100.00;99644.16;6279523;28;20455;-53
2021/07/19 06:47:54;;;;;;;14.75;10.00;;;;;;;23.00;100.00;99638.03;6296081;28;20105;-52
2021/07/19 06:50:54;;;;;;;13.43;9.57;;;;;;;22.99;100.00;99636.34;6279479;28;20495;-51
2021/07/19 06:53:55;;;;;;;13.93;9.63;;;;;;;22.92;100.00;99646.91;6297261;28;20110;-52
2021/07/19 06:56:56;;;;;;;15.63;10.37;;;;;;;23.03;100.00;99636.84;6296029;28;20040;-51
2021/07/19 06:59:57;;;;;;;13.40;10.37;;;;;;;23.07;100.00;99636.28;6295789;28;20330;-51
2021/07/19 07:02:57;;;;;;;12.57;9.60;;;;;;;23.09;100.00;99633.47;6296829;28;20418;-53
2021/07/19 07:05:58;;;;;;;12.83;9.87;;;;;;;23.07;100.00;99628.31;6278323;28;20293;-53
2021/07/19 07:08:59;;;;;;;11.75;9.73;;;;;;;23.08;100.00;99631.78;6296783;28;20064;-51
2021/07/19 07:12:00;;;;;;;11.90;10.52;;;;;;;23.20;100.00;99635.63;6296655;28;20114;-52
2021/07/19 07:15:02;;;;;;;15.47;10.03;;;;;;;23.19;100.00;99625.19;6294094;28;20048;-52
2021/07/19 07:18:08;;;;;;;12.45;9.35;;;;;;;23.20;100.00;99614.34;6286473;28;20131;-54
2021/07/19 07:21:09;;;;;;;11.82;9.52;;;;;;;23.25;100.00;99606.63;6274377;28;20043;-53
2021/07/19 07:24:10;;;;;;;15.23;8.93;;;;;;;23.25;100.00;99608.47;6272592;28;20053;-55
2021/07/19 07:27:12;;;;;;;13.00;8.18;;;;;;;23.12;99.73;99609.97;6272591;28;20388;-54
2021/07/19 07:30:12;;;;;;;;;;;;;;;23.16;100.00;99612.25;6271899;28;20171;-56
2021/07/19 07:33:13;;;;;;;14.60;8.55;;;;;;;23.08;100.00;99606.03;6272397;28;19921;-59
2021/07/19 07:36:14;;;;;;;11.33;8.67;;;;;;;23.05;100.00;99608.22;6272462;28;20048;-59
2021/07/19 07:39:15;;;;;;;12.55;8.10;;;;;;;22.94;100.00;99609.50;6272273;28;20324;-66
2021/07/19 07:42:16;;;;;;;10.03;7.93;;;;;;;22.99;99.48;99603.63;6272308;28;20033;-59
2021/07/19 07:45:17;;;;;;;10.93;7.90;;;;;;;22.91;100.00;99609.84;6272185;28;20041;-59
2021/07/19 07:48:18;;;;;;;10.97;7.80;;;;;;;23.03;100.00;99610.25;6271326;28;20045;-59
2021/07/19 07:51:19;;;;;;;11.88;8.20;;;;;;;22.93;100.00;99613.97;6270680;28;20056;-59
2021/07/19 07:54:20;;;;;;;9.95;7.93;;;;;;;22.92;99.91;99612.34;6271627;28;20056;-60
2021/07/19 07:57:21;;;;;;;13.65;8.02;;;;;;;22.96;100.00;99619.94;6289564;22;20017;-80
2021/07/19 08:00:22;;;;;;;12.97;7.40;;;;;;;22.99;98.76;99622.25;6245980;28;20052;-80
2021/07/19 08:03:23;;;;;;;10.70;7.28;;;;;;;22.93;100.00;99634.44;6262411;28;20086;-80
2021/07/19 08:06:24;;;;;;;9.80;7.27;;;;;;;22.93;100.00;99629.13;6212861;28;20049;-80
2021/07/19 08:09:25;;;;;;;11.68;6.40;;;;;;;22.77;100.00;99627.47;6246701;28;20052;-81
2021/07/19 08:12:27;;;;;;;9.50;6.63;;;;;;;22.82;100.00;99630.41;6245461;28;20052;-82
2021/07/19 08:15:28;;;;;;;13.98;7.22;;;;;;;22.77;100.00;99629.28;6229058;28;20081;-82
2021/07/19 08:18:29;;;;;;;9.48;6.57;;;;;;;22.78;99.81;99639.75;6231787;28;20037;-81
2021/07/19 08:21:31;;;;;;;6.53;5.80;;;;;;;22.92;97.92;99644.25;6250508;28;20124;-80
2021/07/19 08:24:32;;;;;;;9.70;5.80;;;;;;;22.74;98.71;99660.56;6251128;28;20041;-81
2021/07/19 08:27:34;;;;;;;9.15;6.43;;;;;;;22.79;100.00;99675.97;6250976;28;20033;-81
2021/07/19 08:30:35;;;;;;;;;;;;;;;22.81;96.18;99678.47;6252433;28;20065;-79
2021/07/19 08:33:36;;;;;;;11.65;5.63;;;;;;;22.96;98.40;99675.78;6250846;28;19928;-81
2021/07/19 08:36:37;;;;;;;6.43;5.30;;;;;;;23.07;95.28;99676.19;6250440;28;20037;-82
2021/07/19 08:39:38;;;;;;;6.73;4.90;;;;;;;23.04;93.70;99673.06;6252071;28;20045;-82
2021/07/19 08:42:39;;;;;;;8.90;5.07;;;;;;;23.18;95.53;99674.91;6250870;28;20038;-83
2021/07/19 08:45:40;;;;;;;6.53;4.68;;;;;;;23.13;92.12;99656.84;6251999;28;20033;-81
2021/07/19 08:48:41;;;;;;;7.28;4.93;;;;;;;23.26;91.76;99652.69;6234384;28;20045;-81
2021/07/19 08:51:44;;;;;;;7.87;4.83;;;;;;;23.05;92.79;99651.63;6251798;28;20382;-78
2021/07/19 08:54:47;;;;;;;11.43;4.65;;;;;;;22.86;94.76;99657.47;6249556;28;20495;-78
2021/07/19 08:57:50;;;;;;;6.20;4.75;;;;;;;22.68;97.05;99658.63;6248569;28;20053;-78
2021/07/19 09:00:53;;;;;;;9.93;5.30;;;;;;;22.59;96.95;99665.06;6248849;28;20492;-78
2021/07/19 09:03:54;;;;;;;9.85;4.95;;;;;;;22.57;94.81;99661.75;6249845;28;20045;-78
2021/07/19 09:06:55;;;;;;;7.43;4.47;;;;;;;22.33;96.11;99660.13;6248584;28;20071;-78
2021/07/19 09:09:55;;;;;;;8.65;4.53;;;;;;;22.46;93.51;99663.00;6249741;28;20041;-78
2021/07/19 09:12:59;;;;;;;6.37;4.50;;;;;;;22.45;94.93;99652.56;6249719;28;20472;-78
2021/07/19 09:16:00;;;;;;;5.60;4.18;;;;;;;22.24;94.16;99656.72;6248404;28;20128;-79
2021/07/19 09:19:03;;;;;;;10.05;4.32;;;;;;;22.31;91.67;99649.69;6248361;28;20037;-78
2021/07/19 09:22:04;;;;;;;8.82;4.70;;;;;;;22.33;94.06;99652.16;6248290;28;20046;-78
2021/07/19 09:25:12;;;;;;;6.40;3.97;;;;;;;22.49;94.21;99656.50;6231805;28;20049;-78
2021/07/19 09:28:14;;;;;;;4.95;4.43;;;;;;;22.48;92.56;99654.84;6249427;28;20041;-78
2021/07/19 09:31:14;;;;;;;5.95;4.65;;;;;;;22.51;92.43;99654.50;6230853;28;20132;-78
2021/07/19 09:34:18;;;;;;;7.87;4.70;;;;;;;22.47;93.97;99645.22;6231675;28;20094;-78
2021/07/19 09:37:19;;;;;;;6.28;4.22;;;;;;;22.57;93.18;99645.81;6249107;28;20052;-78
2021/07/19 09:40:25;;;;;;;7.00;4.03;;;;;;;22.82;92.33;99634.91;6248150;28;20034;-78
2021/07/19 09:43:30;;;;;;;4.50;4.07;;;;;;;22.78;91.81;99639.75;6231723;28;20083;-78
2021/07/19 09:46:32;;;;;;;5.05;4.47;;;;;;;22.91;93.21;99644.44;6248044;28;20046;-78
2021/07/19 09:49:34;;;;;;;8.00;4.63;;;;;;;23.05;93.33;99637.50;6249054;28;20065;-78
2021/07/19 09:52:35;;;;;;;9.07;4.88;;;;;;;23.20;90.50;99640.13;6231435;28;20041;-78
2021/07/19 09:55:36;;;;;;;8.93;5.47;;;;;;;23.54;91.12;99642.19;6231152;28;20480;-78
2021/07/19 09:58:37;;;;;;;7.50;4.47;;;;;;;23.48;91.40;99630.44;6247348;28;20480;-78
2021/07/19 10:01:42;;;;;;;8.82;5.03;;;;;;;23.79;90.51;99625.88;6230927;28;20039;-78
2021/07/19 10:04:43;;;;;;;7.50;4.85;;;;;;;23.78;86.91;99626.88;6247402;28;20403;-78
2021/07/19 10:07:45;;;;;;;6.00;4.88;;;;;;;23.79;90.31;99632.03;6231005;28;20038;-78
2021/07/19 10:10:46;;;;;;;9.25;5.45;;;;;;;23.79;91.65;99628.56;6247464;28;20060;-78
2021/07/19 10:13:49;;;;;;;7.17;5.33;;;;;;;23.72;88.56;99623.94;6247261;28;20571;-78
2021/07/19 10:16:51;;;;;;;8.82;5.40;;;;;;;23.57;91.67;99631.16;6248197;28;20076;-78
2021/07/19 10:19:53;;;;;;;6.65;5.13;;;;;;;23.57;89.54;99646.31;6246936;28;20099;-78
2021/07/19 10:22:54;;;;;;;8.30;5.60;;;;;;;23.50;91.00;99641.72;6246928;28;20042;-78
2021/07/19 10:25:55;;;;;;;8.27;5.38;;;;;;;23.39;90.30;99639.56;6246743;28;20056;-78
2021/07/19 10:28:56;;;;;;;9.77;5.50;;;;;;;23.45;90.98;99638.81;6230526;28;20088;-78
2021/07/19 10:31:57;;;;;;;;;;;;;;;23.51;92.55;99638.06;6247141;28;20057;-78
2021/07/19 10:34:58;;;;;;;9.75;6.45;;;;;;;23.19;99.64;99638.50;6246658;28;20405;-78
2021/07/19 10:38:08;;;;;;;12.95;6.40;;;;;;;23.32;100.00;99641.31;6247531;28;20044;-78
2021/07/19 10:41:11;;;;;;;9.20;6.32;;;;;;;23.39;100.00;99644.03;6246420;28;20041;-78
2021/07/19 10:44:14;;;;;;;12.77;6.57;;;;;;;23.39;100.00;99652.88;6246095;28;20146;-78
2021/07/19 10:47:22;;;;;;;8.57;6.25;;;;;;;23.57;100.00;99646.31;6247397;28;20122;-78
2021/07/19 10:50:27;;;;;;;6.88;6.18;;;;;;;23.37;100.00;99648.72;6247278;28;20042;-78
2021/07/19 10:53:31;;;;;;;15.32;6.47;;;;;;;23.45;100.00;99654.78;6246213;28;20041;-78
2021/07/19 10:56:31;;;;;;;8.80;5.75;;;;;;;23.61;100.00;99664.38;6213422;28;20053;-78
2021/07/19 10:59:33;;;;;;;8.57;7.07;;;;;;;23.69;100.00;99658.94;6245781;28;20046;-78
2021/07/19 11:02:34;;;;;;;15.77;6.70;;;;;;;23.65;99.10;99657.66;6245840;28;20049;-78
2021/07/19 11:05:37;;;;;;;8.27;6.47;;;;;;;23.80;99.99;99662.97;6245813;28;20116;-78
2021/07/19 11:08:49;;;;;;;9.85;6.75;;;;;;;23.91;97.35;99654.50;6246853;28;20412;-78
2021/07/19 11:11:50;;;;;;;14.13;6.85;;;;;;;24.04;99.15;99653.78;6246738;28;20183;-78
2021/07/19 11:14:55;;;;;;;9.98;6.68;;;;;;;24.08;95.69;99664.88;6246918;28;20501;-78
2021/07/19 11:17:56;;;;;;;9.65;6.55;;;;;;;23.89;94.65;99669.03;6246970;28;20447;-78
2021/07/19 11:21:00;;;;;;;9.50;6.63;;;;;;;24.09;98.73;99667.38;6246590;28;20037;-78
2021/07/19 11:24:12;;;;;;;10.02;6.93;;;;;;;24.19;94.50;99663.56;6246504;28;20283;-78
2021/07/19 11:27:18;;;;;;;;;;;;;;;24.18;94.50;99667.25;6247096;28;20091;-78
2021/07/19 11:30:22;;;;;;;7.13;5.88;;;;;;;24.33;95.48;99657.31;6246581;28;20407;-78
2021/07/19 11:33:34;;;;;;;11.18;6.47;;;;;;;24.20;91.63;99666.03;6245407;28;20041;-78
2021/07/19 11:36:46;;;;;;;9.63;6.30;;;;;;;24.10;91.53;99663.69;6245317;28;20103;-78
2021/07/19 11:39:52;;;;;;;10.98;6.75;;;;;;;24.27;92.79;99663.41;6246404;28;20044;-78
2021/07/19 11:42:55;;;;;;;10.10;6.22;;;;;;;24.36;91.84;99664.09;6245000;28;20396;-78
2021/07/19 11:45:57;;;;;;;8.60;6.15;;;;;;;24.41;93.76;99654.50;6229066;28;20407;-78
2021/07/19 11:49:01;;;;;;;10.02;6.88;;;;;;;24.51;91.93;99656.88;6244921;28;20099;-78
2021/07/19 11:52:05;;;;;;;9.35;6.85;;;;;;;24.50;91.91;99665.88;6245868;28;20069;-78
2021/07/19 11:55:09;;;;;;;7.72;6.25;;;;;;;24.47;87.81;99659.06;6245140;28;20045;-78
2021/07/19 11:58:10;;;;;;;7.60;6.35;;;;;;;24.50;88.38;99649.88;6244675;28;20053;-79
2021/07/19 12:01:12;;;;;;;9.00;6.53;;;;;;;24.42;88.14;99642.00;6246065;28;20045;-78
2021/07/19 12:04:16;;;;;;;9.43;6.50;;;;;;;24.37;86.75;99647.09;6244971;28;20060;-78
2021/07/19 12:07:17;;;;;;;12.73;5.95;;;;;;;24.63;85.06;99638.50;6246169;28;20037;-78
2021/07/19 12:10:20;;;;;;;11.77;6.55;;;;;;;24.48;86.86;99636.72;6244942;28;20455;-78
2021/07/19 12:13:21;;;;;;;9.60;7.03;;;;;;;24.55;91.34;99634.13;6245971;28;20057;-78
2021/07/19 12:16:22;;;;;;;18.23;6.97;;;;;;;24.61;89.12;99633.34;6244703;28;20049;-78
2021/07/19 12:19:23;;;;;;;9.95;7.57;;;;;;;24.67;89.05;99631.75;6244661;28;20042;-79
2021/07/19 12:22:24;;;;;;;8.73;7.43;;;;;;;24.74;88.04;99637.94;6245836;28;20477;-78
2021/07/19 12:25:25;;;;;;;9.40;7.10;;;;;;;24.67;85.93;99647.75;6244897;28;20472;-78
2021/07/19 12:28:26;;;;;;;12.85;7.60;;;;;;;24.30;86.44;99645.19;6211897;28;20057;-78
2021/07/19 12:31:44;;;;;;;11.17;7.10;;;;;;;24.47;87.07;99644.91;6244619;28;20045;-78
2021/07/19 12:34:46;;;;;;;11.93;7.43;;;;;;;24.31;87.85;99638.03;6244611;28;20449;-78
2021/07/19 12:37:58;;;;;;;11.57;7.32;;;;;;;24.50;87.35;99652.53;6244545;28;20041;-78
2021/07/19 12:40:59;;;;;;;10.15;7.57;;;;;;;24.39;87.64;99639.72;6245656;28;20124;-78
2021/07/19 12:44:11;;;;;;;12.35;7.70;;;;;;;24.52;85.96;99626.50;6244473;28;20484;-78
2021/07/19 12:47:16;;;;;;;10.40;7.18;;;;;;;24.99;85.58;99608.94;6245648;28;20084;-78
2021/07/19 12:50:16;;;;;;;9.93;7.22;;;;;;;24.93;84.65;99593.72;6244358;28;20099;-78
2021/07/19 12:53:17;;;;;;;10.20;7.00;;;;;;;24.98;85.77;99601.13;6228275;28;20472;-78
2021/07/19 12:56:18;;;;;;;12.70;7.22;;;;;;;24.89;83.62;99595.97;6245633;28;20116;-78
2021/07/19 12:59:19;;;;;;;9.98;6.88;;;;;;;24.91;82.64;99588.59;6227873;28;20056;-78
2021/07/19 13:02:21;;;;;;;11.13;7.30;;;;;;;25.13;83.19;99580.47;6244181;28;20069;-78
2021/07/19 13:05:22;;;;;;;10.02;7.47;;;;;;;25.27;84.23;99586.69;6246673;28;20042;-78
2021/07/19 13:08:30;;;;;;;11.07;7.15;;;;;;;25.39;83.39;99576.25;6232485;28;20088;-79
2021/07/19 13:11:36;;;;;;;8.90;6.72;;;;;;;25.52;80.56;99555.72;6250423;28;20443;-78
2021/07/19 13:14:39;;;;;;;9.57;7.18;;;;;;;25.60;80.85;99548.56;6248438;28;20041;-79
2021/07/19 13:17:42;;;;;;;9.48;7.30;;;;;;;26.00;77.10;99543.25;6249769;28;20041;-78
2021/07/19 13:20:42;;;;;;;10.30;7.28;;;;;;;26.22;78.63;99541.19;6248567;28;20050;-78
2021/07/19 13:23:43;;;;;;;9.82;7.00;;;;;;;26.31;76.06;99534.56;6249647;28;20044;-79
2021/07/19 13:26:44;;;;;;;11.50;6.30;;;;;;;26.54;74.61;99531.41;6249545;28;20046;-78
2021/07/19 13:29:56;;;;;;;14.35;6.65;;;;;;;26.60;75.24;99521.78;6249415;28;20049;-78
2021/07/19 13:32:59;;;;;;;8.63;6.60;;;;;;;26.58;76.32;99521.16;6249194;28;20110;-78
2021/07/19 13:36:00;;;;;;;10.77;6.70;;;;;;;26.44;77.68;99531.03;6231923;28;20096;-79
2021/07/19 13:39:01;;;;;;;7.78;6.65;;;;;;;26.39;76.41;99533.53;6249316;28;20486;-79
2021/07/19 13:42:09;;;;;;;8.45;6.72;;;;;;;26.13;75.15;99529.91;6215519;28;20038;-80
2021/07/19 13:45:18;;;;;;;11.35;6.72;;;;;;;26.19;75.38;99531.75;6249146;28;20060;-80
2021/07/19 13:48:20;;;;;;;9.68;6.65;;;;;;;26.46;77.40;99519.13;6249118;28;20458;-80
2021/07/19 13:51:20;;;;;;;9.13;6.88;;;;;;;25.95;78.04;99519.00;6249106;28;20049;-80
2021/07/19 13:54:21;;;;;;;11.07;6.45;;;;;;;26.45;74.32;99516.66;6248827;28;20045;-80
2021/07/19 13:57:22;;;;;;;8.38;7.00;;;;;;;26.57;73.57;99504.31;6231234;28;20046;-80
2021/07/19 14:00:23;;;;;;;10.82;7.25;;;;;;;26.65;72.88;99504.06;6247893;28;20051;-80
2021/07/19 14:03:24;;;;;;;12.73;6.80;;;;;;;26.56;73.11;99513.31;6231188;28;20088;-80
2021/07/19 14:06:25;;;;;;;9.63;6.65;;;;;;;26.41;74.77;99502.88;6247614;28;20044;-80
2021/07/19 14:09:27;;;;;;;11.35;6.57;;;;;;;26.23;74.80;99497.34;6247488;28;20045;-80